sensor_id;sensor_type;location;lat;lon;timestamp;P1;durP1;ratioP1;P2;durP2;ratioP2
14688;SDS011;7432;48.728;9.154;2024-01-06T00:02:14;8.13;;;7.43;;
14688;SDS011;7432;48.728;9.154;2024-01-06T00:04:40;7.70;;;7.20;;
14688;SDS011;7432;48.728;9.154;2024-01-06T00:07:07;8.10;;;7.50;;
14688;SDS011;7432;48.728;9.154;2024-01-06T00:09:33;8.80;;;7.23;;
14688;SDS011;7432;48.728;9.154;2024-01-06T00:11:59;7.93;;;7.23;;
14688;SDS011;7432;48.728;9.154;2024-01-06T00:14:28;8.20;;;7.40;;
14688;SDS011;7432;48.728;9.154;2024-01-06T00:16:54;7.27;;;6.63;;
14688;SDS011;7432;48.728;9.154;2024-01-06T00:19:21;7.60;;;7.00;;
14688;SDS011;7432;48.728;9.154;2024-01-06T00:21:47;7.17;;;6.67;;
14688;SDS011;7432;48.728;9.154;2024-01-06T00:24:13;8.23;;;7.53;;
14688;SDS011;7432;48.728;9.154;2024-01-06T00:26:40;7.93;;;7.37;;
14688;SDS011;7432;48.728;9.154;2024-01-06T00:29:07;7.77;;;6.53;;
14688;SDS011;7432;48.728;9.154;2024-01-06T00:31:34;7.37;;;6.73;;
14688;SDS011;7432;48.728;9.154;2024-01-06T00:34:01;7.30;;;6.80;;
14688;SDS011;7432;48.728;9.154;2024-01-06T00:36:28;7.47;;;6.87;;
14688;SDS011;7432;48.728;9.154;2024-01-06T00:38:54;8.20;;;7.47;;
14688;SDS011;7432;48.728;9.154;2024-01-06T00:41:21;8.80;;;7.03;;
14688;SDS011;7432;48.728;9.154;2024-01-06T00:43:47;7.73;;;7.00;;
14688;SDS011;7432;48.728;9.154;2024-01-06T00:46:13;7.63;;;7.03;;
14688;SDS011;7432;48.728;9.154;2024-01-06T00:48:41;8.80;;;8.10;;
14688;SDS011;7432;48.728;9.154;2024-01-06T00:51:07;8.10;;;7.40;;
14688;SDS011;7432;48.728;9.154;2024-01-06T00:53:34;7.90;;;7.30;;
14688;SDS011;7432;48.728;9.154;2024-01-06T00:56:00;7.80;;;7.10;;
14688;SDS011;7432;48.728;9.154;2024-01-06T00:58:27;8.47;;;7.63;;
14688;SDS011;7432;48.728;9.154;2024-01-06T01:00:54;7.87;;;7.27;;
14688;SDS011;7432;48.728;9.154;2024-01-06T01:03:20;8.00;;;7.33;;
14688;SDS011;7432;48.728;9.154;2024-01-06T01:05:47;7.90;;;7.10;;
14688;SDS011;7432;48.728;9.154;2024-01-06T01:08:14;7.43;;;6.93;;
14688;SDS011;7432;48.728;9.154;2024-01-06T01:10:40;7.90;;;7.30;;
14688;SDS011;7432;48.728;9.154;2024-01-06T01:13:06;7.77;;;7.00;;
14688;SDS011;7432;48.728;9.154;2024-01-06T01:15:33;8.33;;;7.63;;
14688;SDS011;7432;48.728;9.154;2024-01-06T01:18:00;7.80;;;7.30;;
14688;SDS011;7432;48.728;9.154;2024-01-06T01:20:26;8.63;;;7.40;;
14688;SDS011;7432;48.728;9.154;2024-01-06T01:22:54;10.27;;;7.47;;
14688;SDS011;7432;48.728;9.154;2024-01-06T01:25:20;7.90;;;7.20;;
14688;SDS011;7432;48.728;9.154;2024-01-06T01:27:46;7.50;;;7.00;;
14688;SDS011;7432;48.728;9.154;2024-01-06T01:30:13;7.87;;;7.27;;
14688;SDS011;7432;48.728;9.154;2024-01-06T01:32:40;8.30;;;7.80;;
14688;SDS011;7432;48.728;9.154;2024-01-06T01:35:06;8.20;;;7.60;;
14688;SDS011;7432;48.728;9.154;2024-01-06T01:37:33;8.30;;;7.60;;
14688;SDS011;7432;48.728;9.154;2024-01-06T01:40:01;8.03;;;7.37;;
14688;SDS011;7432;48.728;9.154;2024-01-06T01:42:27;8.03;;;7.40;;
14688;SDS011;7432;48.728;9.154;2024-01-06T01:44:54;7.37;;;6.90;;
14688;SDS011;7432;48.728;9.154;2024-01-06T01:47:20;7.70;;;7.03;;
14688;SDS011;7432;48.728;9.154;2024-01-06T01:49:46;7.87;;;7.20;;
14688;SDS011;7432;48.728;9.154;2024-01-06T01:52:13;7.50;;;7.00;;
14688;SDS011;7432;48.728;9.154;2024-01-06T01:54:41;7.67;;;7.17;;
14688;SDS011;7432;48.728;9.154;2024-01-06T01:57:10;8.30;;;7.53;;
14688;SDS011;7432;48.728;9.154;2024-01-06T01:59:38;8.50;;;7.60;;
14688;SDS011;7432;48.728;9.154;2024-01-06T02:02:05;7.57;;;7.07;;
14688;SDS011;7432;48.728;9.154;2024-01-06T02:04:32;7.10;;;6.60;;
14688;SDS011;7432;48.728;9.154;2024-01-06T02:06:58;7.70;;;6.93;;
14688;SDS011;7432;48.728;9.154;2024-01-06T02:09:24;8.30;;;7.50;;
14688;SDS011;7432;48.728;9.154;2024-01-06T02:11:54;8.30;;;7.20;;
14688;SDS011;7432;48.728;9.154;2024-01-06T02:14:21;7.70;;;7.00;;
14688;SDS011;7432;48.728;9.154;2024-01-06T02:16:48;7.67;;;6.97;;
14688;SDS011;7432;48.728;9.154;2024-01-06T02:19:14;6.67;;;6.27;;
14688;SDS011;7432;48.728;9.154;2024-01-06T02:21:42;8.10;;;7.30;;
14688;SDS011;7432;48.728;9.154;2024-01-06T02:24:11;8.00;;;7.30;;
14688;SDS011;7432;48.728;9.154;2024-01-06T02:26:37;7.30;;;6.80;;
14688;SDS011;7432;48.728;9.154;2024-01-06T02:29:03;7.20;;;6.80;;
14688;SDS011;7432;48.728;9.154;2024-01-06T02:31:30;7.60;;;7.10;;
14688;SDS011;7432;48.728;9.154;2024-01-06T02:33:56;8.30;;;7.60;;
14688;SDS011;7432;48.728;9.154;2024-01-06T02:36:22;7.83;;;7.33;;
14688;SDS011;7432;48.728;9.154;2024-01-06T02:38:49;7.87;;;7.20;;
14688;SDS011;7432;48.728;9.154;2024-01-06T02:41:16;7.60;;;7.07;;
14688;SDS011;7432;48.728;9.154;2024-01-06T02:43:43;7.50;;;7.00;;
14688;SDS011;7432;48.728;9.154;2024-01-06T02:46:09;9.53;;;7.50;;
14688;SDS011;7432;48.728;9.154;2024-01-06T02:48:35;8.00;;;7.20;;
14688;SDS011;7432;48.728;9.154;2024-01-06T02:51:02;8.20;;;7.43;;
14688;SDS011;7432;48.728;9.154;2024-01-06T02:53:28;7.60;;;7.10;;
14688;SDS011;7432;48.728;9.154;2024-01-06T02:55:55;7.77;;;7.27;;
14688;SDS011;7432;48.728;9.154;2024-01-06T02:58:22;8.10;;;7.50;;
14688;SDS011;7432;48.728;9.154;2024-01-06T03:00:49;8.83;;;8.17;;
14688;SDS011;7432;48.728;9.154;2024-01-06T03:03:16;9.30;;;8.37;;
14688;SDS011;7432;48.728;9.154;2024-01-06T03:05:42;8.73;;;7.87;;
14688;SDS011;7432;48.728;9.154;2024-01-06T03:08:08;8.43;;;7.70;;
14688;SDS011;7432;48.728;9.154;2024-01-06T03:10:35;7.70;;;7.10;;
14688;SDS011;7432;48.728;9.154;2024-01-06T03:13:03;8.50;;;7.80;;
14688;SDS011;7432;48.728;9.154;2024-01-06T03:15:31;8.47;;;7.70;;
14688;SDS011;7432;48.728;9.154;2024-01-06T03:17:57;8.70;;;8.00;;
14688;SDS011;7432;48.728;9.154;2024-01-06T03:20:23;8.40;;;7.80;;
14688;SDS011;7432;48.728;9.154;2024-01-06T03:22:49;8.40;;;7.73;;
14688;SDS011;7432;48.728;9.154;2024-01-06T03:25:16;8.93;;;8.07;;
14688;SDS011;7432;48.728;9.154;2024-01-06T03:27:42;8.57;;;7.70;;
14688;SDS011;7432;48.728;9.154;2024-01-06T03:30:09;8.43;;;7.73;;
14688;SDS011;7432;48.728;9.154;2024-01-06T03:32:38;8.63;;;7.93;;
14688;SDS011;7432;48.728;9.154;2024-01-06T03:35:05;8.03;;;7.33;;
14688;SDS011;7432;48.728;9.154;2024-01-06T03:37:32;9.13;;;7.80;;
14688;SDS011;7432;48.728;9.154;2024-01-06T03:39:58;8.70;;;7.97;;
14688;SDS011;7432;48.728;9.154;2024-01-06T03:42:25;8.03;;;7.43;;
14688;SDS011;7432;48.728;9.154;2024-01-06T03:44:51;8.97;;;8.20;;
14688;SDS011;7432;48.728;9.154;2024-01-06T03:47:18;8.80;;;8.10;;
14688;SDS011;7432;48.728;9.154;2024-01-06T03:49:46;9.87;;;7.90;;
14688;SDS011;7432;48.728;9.154;2024-01-06T03:52:12;8.40;;;7.70;;
14688;SDS011;7432;48.728;9.154;2024-01-06T03:54:39;8.50;;;7.70;;
14688;SDS011;7432;48.728;9.154;2024-01-06T03:57:06;9.00;;;8.10;;
14688;SDS011;7432;48.728;9.154;2024-01-06T03:59:32;8.47;;;7.60;;
14688;SDS011;7432;48.728;9.154;2024-01-06T04:01:58;8.40;;;7.70;;
14688;SDS011;7432;48.728;9.154;2024-01-06T04:04:25;8.60;;;8.00;;
14688;SDS011;7432;48.728;9.154;2024-01-06T04:06:53;8.40;;;7.60;;
14688;SDS011;7432;48.728;9.154;2024-01-06T04:09:19;8.33;;;7.53;;
14688;SDS011;7432;48.728;9.154;2024-01-06T04:11:45;9.23;;;8.43;;
14688;SDS011;7432;48.728;9.154;2024-01-06T04:14:12;8.50;;;7.80;;
14688;SDS011;7432;48.728;9.154;2024-01-06T04:16:38;9.23;;;7.60;;
14688;SDS011;7432;48.728;9.154;2024-01-06T04:19:04;7.93;;;7.40;;
14688;SDS011;7432;48.728;9.154;2024-01-06T04:21:32;8.60;;;7.70;;
14688;SDS011;7432;48.728;9.154;2024-01-06T04:24:00;8.50;;;7.80;;
14688;SDS011;7432;48.728;9.154;2024-01-06T04:26:26;8.80;;;7.90;;
14688;SDS011;7432;48.728;9.154;2024-01-06T04:28:52;8.37;;;7.60;;
14688;SDS011;7432;48.728;9.154;2024-01-06T04:31:19;8.50;;;7.13;;
14688;SDS011;7432;48.728;9.154;2024-01-06T04:33:45;7.70;;;7.20;;
14688;SDS011;7432;48.728;9.154;2024-01-06T04:36:11;8.20;;;7.57;;
14688;SDS011;7432;48.728;9.154;2024-01-06T04:38:38;7.93;;;7.23;;
14688;SDS011;7432;48.728;9.154;2024-01-06T04:41:06;8.73;;;7.93;;
14688;SDS011;7432;48.728;9.154;2024-01-06T04:43:32;7.10;;;6.60;;
14688;SDS011;7432;48.728;9.154;2024-01-06T04:45:58;7.93;;;7.27;;
14688;SDS011;7432;48.728;9.154;2024-01-06T04:48:25;7.60;;;7.10;;
14688;SDS011;7432;48.728;9.154;2024-01-06T04:50:51;8.20;;;7.50;;
14688;SDS011;7432;48.728;9.154;2024-01-06T04:53:17;10.07;;;7.53;;
14688;SDS011;7432;48.728;9.154;2024-01-06T04:55:44;7.60;;;6.90;;
14688;SDS011;7432;48.728;9.154;2024-01-06T04:58:11;7.97;;;7.23;;
14688;SDS011;7432;48.728;9.154;2024-01-06T05:00:38;8.30;;;7.50;;
14688;SDS011;7432;48.728;9.154;2024-01-06T05:03:05;8.10;;;7.40;;
14688;SDS011;7432;48.728;9.154;2024-01-06T05:05:31;7.50;;;6.90;;
14688;SDS011;7432;48.728;9.154;2024-01-06T05:07:57;7.30;;;6.80;;
14688;SDS011;7432;48.728;9.154;2024-01-06T05:10:24;8.33;;;6.97;;
14688;SDS011;7432;48.728;9.154;2024-01-06T05:12:50;8.03;;;7.33;;
14688;SDS011;7432;48.728;9.154;2024-01-06T05:15:19;7.57;;;6.93;;
14688;SDS011;7432;48.728;9.154;2024-01-06T05:17:45;8.00;;;7.27;;
14688;SDS011;7432;48.728;9.154;2024-01-06T05:20:12;9.03;;;7.00;;
14688;SDS011;7432;48.728;9.154;2024-01-06T05:22:38;7.73;;;7.20;;
14688;SDS011;7432;48.728;9.154;2024-01-06T05:25:05;7.40;;;6.90;;
14688;SDS011;7432;48.728;9.154;2024-01-06T05:27:31;7.97;;;7.17;;
14688;SDS011;7432;48.728;9.154;2024-01-06T05:29:57;7.40;;;6.70;;
14688;SDS011;7432;48.728;9.154;2024-01-06T05:32:25;8.10;;;7.40;;
14688;SDS011;7432;48.728;9.154;2024-01-06T05:34:52;7.93;;;7.27;;
14688;SDS011;7432;48.728;9.154;2024-01-06T05:37:18;7.70;;;7.20;;
14688;SDS011;7432;48.728;9.154;2024-01-06T05:39:44;7.50;;;7.00;;
14688;SDS011;7432;48.728;9.154;2024-01-06T05:42:11;8.17;;;7.33;;
14688;SDS011;7432;48.728;9.154;2024-01-06T05:44:39;7.47;;;6.60;;
14688;SDS011;7432;48.728;9.154;2024-01-06T05:47:06;7.40;;;6.80;;
14688;SDS011;7432;48.728;9.154;2024-01-06T05:49:34;7.57;;;6.93;;
14688;SDS011;7432;48.728;9.154;2024-01-06T05:52:00;7.50;;;6.80;;
14688;SDS011;7432;48.728;9.154;2024-01-06T05:54:27;7.57;;;7.07;;
14688;SDS011;7432;48.728;9.154;2024-01-06T05:56:55;7.27;;;6.77;;
14688;SDS011;7432;48.728;9.154;2024-01-06T05:59:21;7.30;;;6.80;;
14688;SDS011;7432;48.728;9.154;2024-01-06T06:01:48;7.83;;;7.27;;
14688;SDS011;7432;48.728;9.154;2024-01-06T06:04:14;7.60;;;6.87;;
14688;SDS011;7432;48.728;9.154;2024-01-06T06:06:42;8.13;;;7.30;;
14688;SDS011;7432;48.728;9.154;2024-01-06T06:09:08;7.57;;;6.97;;
14688;SDS011;7432;48.728;9.154;2024-01-06T06:11:35;7.13;;;6.73;;
14688;SDS011;7432;48.728;9.154;2024-01-06T06:14:01;8.00;;;7.20;;
14688;SDS011;7432;48.728;9.154;2024-01-06T06:16:28;8.90;;;7.37;;
14688;SDS011;7432;48.728;9.154;2024-01-06T06:18:54;8.47;;;7.67;;
14688;SDS011;7432;48.728;9.154;2024-01-06T06:21:21;8.50;;;8.00;;
14688;SDS011;7432;48.728;9.154;2024-01-06T06:23:48;8.30;;;7.70;;
14688;SDS011;7432;48.728;9.154;2024-01-06T06:26:15;7.83;;;7.30;;
14688;SDS011;7432;48.728;9.154;2024-01-06T06:28:42;8.70;;;8.00;;
14688;SDS011;7432;48.728;9.154;2024-01-06T06:31:08;8.80;;;8.10;;
14688;SDS011;7432;48.728;9.154;2024-01-06T06:33:34;8.47;;;7.67;;
14688;SDS011;7432;48.728;9.154;2024-01-06T06:36:01;8.90;;;8.20;;
14688;SDS011;7432;48.728;9.154;2024-01-06T06:38:28;8.50;;;7.80;;
14688;SDS011;7432;48.728;9.154;2024-01-06T06:40:56;8.00;;;7.50;;
14688;SDS011;7432;48.728;9.154;2024-01-06T06:43:23;8.67;;;7.97;;
14688;SDS011;7432;48.728;9.154;2024-01-06T06:45:49;8.17;;;7.47;;
14688;SDS011;7432;48.728;9.154;2024-01-06T06:48:15;7.73;;;7.20;;
14688;SDS011;7432;48.728;9.154;2024-01-06T06:50:42;7.80;;;7.10;;
14688;SDS011;7432;48.728;9.154;2024-01-06T06:53:08;8.40;;;7.80;;
14688;SDS011;7432;48.728;9.154;2024-01-06T06:55:35;8.60;;;7.90;;
14688;SDS011;7432;48.728;9.154;2024-01-06T06:58:04;8.77;;;8.07;;
14688;SDS011;7432;48.728;9.154;2024-01-06T07:00:31;8.53;;;7.83;;
14688;SDS011;7432;48.728;9.154;2024-01-06T07:02:57;8.47;;;7.77;;
14688;SDS011;7432;48.728;9.154;2024-01-06T07:05:24;7.37;;;6.93;;
14688;SDS011;7432;48.728;9.154;2024-01-06T07:07:50;8.50;;;7.87;;
14688;SDS011;7432;48.728;9.154;2024-01-06T07:10:17;8.00;;;7.30;;
14688;SDS011;7432;48.728;9.154;2024-01-06T07:12:44;8.40;;;7.70;;
14688;SDS011;7432;48.728;9.154;2024-01-06T07:15:11;8.73;;;8.00;;
14688;SDS011;7432;48.728;9.154;2024-01-06T07:17:38;8.50;;;7.53;;
14688;SDS011;7432;48.728;9.154;2024-01-06T07:20:05;7.70;;;7.20;;
14688;SDS011;7432;48.728;9.154;2024-01-06T07:22:32;8.90;;;8.20;;
14688;SDS011;7432;48.728;9.154;2024-01-06T07:25:00;8.07;;;7.47;;
14688;SDS011;7432;48.728;9.154;2024-01-06T07:27:26;8.67;;;7.77;;
14688;SDS011;7432;48.728;9.154;2024-01-06T07:29:53;8.47;;;7.63;;
14688;SDS011;7432;48.728;9.154;2024-01-06T07:32:21;7.73;;;7.17;;
14688;SDS011;7432;48.728;9.154;2024-01-06T07:34:48;8.10;;;7.40;;
14688;SDS011;7432;48.728;9.154;2024-01-06T07:37:14;8.67;;;7.97;;
14688;SDS011;7432;48.728;9.154;2024-01-06T07:39:41;9.17;;;8.47;;
14688;SDS011;7432;48.728;9.154;2024-01-06T07:42:08;9.57;;;8.60;;
14688;SDS011;7432;48.728;9.154;2024-01-06T07:44:34;8.70;;;8.00;;
14688;SDS011;7432;48.728;9.154;2024-01-06T07:47:00;8.50;;;8.00;;
14688;SDS011;7432;48.728;9.154;2024-01-06T07:49:31;8.30;;;7.70;;
14688;SDS011;7432;48.728;9.154;2024-01-06T07:51:57;8.10;;;7.50;;
14688;SDS011;7432;48.728;9.154;2024-01-06T07:54:24;7.50;;;7.10;;
14688;SDS011;7432;48.728;9.154;2024-01-06T07:56:51;7.57;;;7.07;;
14688;SDS011;7432;48.728;9.154;2024-01-06T07:59:17;7.60;;;7.10;;
14688;SDS011;7432;48.728;9.154;2024-01-06T08:01:44;7.73;;;7.13;;
14688;SDS011;7432;48.728;9.154;2024-01-06T08:04:10;8.37;;;7.60;;
14688;SDS011;7432;48.728;9.154;2024-01-06T08:06:38;7.40;;;7.00;;
14688;SDS011;7432;48.728;9.154;2024-01-06T08:09:04;7.10;;;6.70;;
14688;SDS011;7432;48.728;9.154;2024-01-06T08:11:31;7.80;;;7.10;;
14688;SDS011;7432;48.728;9.154;2024-01-06T08:13:58;7.50;;;7.10;;
14688;SDS011;7432;48.728;9.154;2024-01-06T08:16:24;7.63;;;7.23;;
14688;SDS011;7432;48.728;9.154;2024-01-06T08:18:50;7.50;;;7.00;;
14688;SDS011;7432;48.728;9.154;2024-01-06T08:21:17;7.27;;;6.77;;
14688;SDS011;7432;48.728;9.154;2024-01-06T08:23:45;7.90;;;7.27;;
14688;SDS011;7432;48.728;9.154;2024-01-06T08:26:11;8.20;;;7.40;;
14688;SDS011;7432;48.728;9.154;2024-01-06T08:28:37;7.43;;;6.97;;
14688;SDS011;7432;48.728;9.154;2024-01-06T08:31:04;8.10;;;7.60;;
14688;SDS011;7432;48.728;9.154;2024-01-06T08:33:30;7.60;;;6.90;;
14688;SDS011;7432;48.728;9.154;2024-01-06T08:35:57;7.80;;;7.30;;
14688;SDS011;7432;48.728;9.154;2024-01-06T08:38:23;8.13;;;7.53;;
14688;SDS011;7432;48.728;9.154;2024-01-06T08:40:51;7.30;;;6.80;;
14688;SDS011;7432;48.728;9.154;2024-01-06T08:43:18;7.30;;;6.77;;
14688;SDS011;7432;48.728;9.154;2024-01-06T08:45:45;8.00;;;7.50;;
14688;SDS011;7432;48.728;9.154;2024-01-06T08:48:11;8.07;;;7.57;;
14688;SDS011;7432;48.728;9.154;2024-01-06T08:50:38;7.63;;;7.13;;
14688;SDS011;7432;48.728;9.154;2024-01-06T08:53:05;7.83;;;7.40;;
14688;SDS011;7432;48.728;9.154;2024-01-06T08:55:31;8.10;;;7.50;;
14688;SDS011;7432;48.728;9.154;2024-01-06T08:57:59;7.30;;;6.90;;
14688;SDS011;7432;48.728;9.154;2024-01-06T09:00:25;7.67;;;7.13;;
14688;SDS011;7432;48.728;9.154;2024-01-06T09:02:51;7.80;;;7.30;;
14688;SDS011;7432;48.728;9.154;2024-01-06T09:05:18;7.67;;;7.07;;
14688;SDS011;7432;48.728;9.154;2024-01-06T09:07:44;7.70;;;7.20;;
14688;SDS011;7432;48.728;9.154;2024-01-06T09:10:15;8.00;;;7.30;;
14688;SDS011;7432;48.728;9.154;2024-01-06T09:12:41;7.80;;;7.23;;
14688;SDS011;7432;48.728;9.154;2024-01-06T09:15:09;7.80;;;7.20;;
14688;SDS011;7432;48.728;9.154;2024-01-06T09:17:35;8.17;;;7.47;;
14688;SDS011;7432;48.728;9.154;2024-01-06T09:20:02;7.10;;;6.70;;
14688;SDS011;7432;48.728;9.154;2024-01-06T09:22:29;7.57;;;7.07;;
14688;SDS011;7432;48.728;9.154;2024-01-06T09:24:56;8.00;;;7.60;;
14688;SDS011;7432;48.728;9.154;2024-01-06T09:27:22;7.70;;;7.20;;
14688;SDS011;7432;48.728;9.154;2024-01-06T09:29:48;7.20;;;6.80;;
14688;SDS011;7432;48.728;9.154;2024-01-06T09:32:17;7.40;;;7.00;;
14688;SDS011;7432;48.728;9.154;2024-01-06T09:34:43;7.13;;;6.70;;
14688;SDS011;7432;48.728;9.154;2024-01-06T09:37:10;8.00;;;7.50;;
14688;SDS011;7432;48.728;9.154;2024-01-06T09:39:36;7.60;;;7.10;;
14688;SDS011;7432;48.728;9.154;2024-01-06T09:42:04;7.20;;;6.80;;
14688;SDS011;7432;48.728;9.154;2024-01-06T09:44:31;7.50;;;7.10;;
14688;SDS011;7432;48.728;9.154;2024-01-06T09:46:58;7.60;;;7.20;;
14688;SDS011;7432;48.728;9.154;2024-01-06T09:49:26;7.27;;;6.90;;
14688;SDS011;7432;48.728;9.154;2024-01-06T09:51:55;7.80;;;7.30;;
14688;SDS011;7432;48.728;9.154;2024-01-06T09:54:24;7.83;;;7.23;;
14688;SDS011;7432;48.728;9.154;2024-01-06T09:56:51;8.77;;;8.10;;
14688;SDS011;7432;48.728;9.154;2024-01-06T09:59:18;8.17;;;7.60;;
14688;SDS011;7432;48.728;9.154;2024-01-06T10:01:45;6.97;;;6.63;;
14688;SDS011;7432;48.728;9.154;2024-01-06T10:04:11;7.20;;;6.80;;
14688;SDS011;7432;48.728;9.154;2024-01-06T10:06:39;7.80;;;7.30;;
14688;SDS011;7432;48.728;9.154;2024-01-06T10:09:05;7.47;;;6.97;;
14688;SDS011;7432;48.728;9.154;2024-01-06T10:11:32;8.10;;;7.60;;
14688;SDS011;7432;48.728;9.154;2024-01-06T10:14:01;7.80;;;7.30;;
14688;SDS011;7432;48.728;9.154;2024-01-06T10:16:29;8.13;;;7.57;;
14688;SDS011;7432;48.728;9.154;2024-01-06T10:18:55;6.97;;;6.57;;
14688;SDS011;7432;48.728;9.154;2024-01-06T10:21:22;7.70;;;7.20;;
14688;SDS011;7432;48.728;9.154;2024-01-06T10:23:50;7.70;;;7.30;;
14688;SDS011;7432;48.728;9.154;2024-01-06T10:26:16;7.50;;;7.10;;
14688;SDS011;7432;48.728;9.154;2024-01-06T10:28:43;7.40;;;7.00;;
14688;SDS011;7432;48.728;9.154;2024-01-06T10:31:09;7.40;;;7.00;;
14688;SDS011;7432;48.728;9.154;2024-01-06T10:33:36;8.30;;;7.80;;
14688;SDS011;7432;48.728;9.154;2024-01-06T10:36:04;9.23;;;8.53;;
14688;SDS011;7432;48.728;9.154;2024-01-06T10:38:33;8.77;;;8.17;;
14688;SDS011;7432;48.728;9.154;2024-01-06T10:41:02;8.90;;;8.20;;
14688;SDS011;7432;48.728;9.154;2024-01-06T10:43:32;10.80;;;9.90;;
14688;SDS011;7432;48.728;9.154;2024-01-06T10:46:02;7.67;;;7.17;;
14688;SDS011;7432;48.728;9.154;2024-01-06T10:48:30;7.93;;;7.23;;
14688;SDS011;7432;48.728;9.154;2024-01-06T10:50:58;7.53;;;7.03;;
14688;SDS011;7432;48.728;9.154;2024-01-06T10:53:25;7.17;;;6.73;;
14688;SDS011;7432;48.728;9.154;2024-01-06T10:55:53;7.30;;;6.90;;
14688;SDS011;7432;48.728;9.154;2024-01-06T10:58:21;7.73;;;7.23;;
14688;SDS011;7432;48.728;9.154;2024-01-06T11:00:48;7.50;;;7.00;;
14688;SDS011;7432;48.728;9.154;2024-01-06T11:03:14;7.33;;;6.93;;
14688;SDS011;7432;48.728;9.154;2024-01-06T11:05:41;7.30;;;6.90;;
14688;SDS011;7432;48.728;9.154;2024-01-06T11:08:08;6.50;;;6.20;;
14688;SDS011;7432;48.728;9.154;2024-01-06T11:10:35;6.73;;;6.43;;
14688;SDS011;7432;48.728;9.154;2024-01-06T11:13:06;7.37;;;6.97;;
14688;SDS011;7432;48.728;9.154;2024-01-06T11:15:43;7.17;;;6.77;;
14688;SDS011;7432;48.728;9.154;2024-01-06T11:18:29;6.17;;;5.87;;
14688;SDS011;7432;48.728;9.154;2024-01-06T11:21:14;7.03;;;6.63;;
14688;SDS011;7432;48.728;9.154;2024-01-06T11:23:43;7.10;;;6.70;;
14688;SDS011;7432;48.728;9.154;2024-01-06T11:26:10;7.03;;;6.63;;
14688;SDS011;7432;48.728;9.154;2024-01-06T11:28:43;6.97;;;6.47;;
14688;SDS011;7432;48.728;9.154;2024-01-06T11:31:11;6.87;;;6.37;;
14688;SDS011;7432;48.728;9.154;2024-01-06T11:33:40;6.53;;;6.23;;
14688;SDS011;7432;48.728;9.154;2024-01-06T11:36:08;6.37;;;6.07;;
14688;SDS011;7432;48.728;9.154;2024-01-06T11:38:37;7.50;;;7.00;;
14688;SDS011;7432;48.728;9.154;2024-01-06T11:41:05;6.97;;;6.57;;
14688;SDS011;7432;48.728;9.154;2024-01-06T11:43:33;6.93;;;6.53;;
14688;SDS011;7432;48.728;9.154;2024-01-06T11:46:00;6.97;;;6.60;;
14688;SDS011;7432;48.728;9.154;2024-01-06T11:48:29;8.07;;;7.57;;
14688;SDS011;7432;48.728;9.154;2024-01-06T11:50:56;7.27;;;6.87;;
14688;SDS011;7432;48.728;9.154;2024-01-06T11:53:23;8.50;;;7.90;;
14688;SDS011;7432;48.728;9.154;2024-01-06T11:55:52;8.43;;;7.83;;
14688;SDS011;7432;48.728;9.154;2024-01-06T11:58:19;7.00;;;6.60;;
14688;SDS011;7432;48.728;9.154;2024-01-06T12:00:54;7.60;;;7.10;;
14688;SDS011;7432;48.728;9.154;2024-01-06T12:03:21;9.53;;;8.83;;
14688;SDS011;7432;48.728;9.154;2024-01-06T12:05:59;8.20;;;7.67;;
14688;SDS011;7432;48.728;9.154;2024-01-06T12:08:27;7.17;;;6.87;;
14688;SDS011;7432;48.728;9.154;2024-01-06T12:11:01;7.10;;;6.70;;
14688;SDS011;7432;48.728;9.154;2024-01-06T12:13:27;7.20;;;6.80;;
14688;SDS011;7432;48.728;9.154;2024-01-06T12:15:54;7.45;;;7.05;;
14688;SDS011;7432;48.728;9.154;2024-01-06T12:18:21;7.37;;;6.97;;
14688;SDS011;7432;48.728;9.154;2024-01-06T12:20:49;7.90;;;7.37;;
14688;SDS011;7432;48.728;9.154;2024-01-06T12:23:24;7.10;;;6.60;;
14688;SDS011;7432;48.728;9.154;2024-01-06T12:25:52;7.20;;;6.80;;
14688;SDS011;7432;48.728;9.154;2024-01-06T12:28:18;7.17;;;6.77;;
14688;SDS011;7432;48.728;9.154;2024-01-06T12:30:45;7.00;;;6.50;;
14688;SDS011;7432;48.728;9.154;2024-01-06T12:33:11;6.73;;;6.33;;
14688;SDS011;7432;48.728;9.154;2024-01-06T12:35:39;6.77;;;6.37;;
14688;SDS011;7432;48.728;9.154;2024-01-06T12:38:05;7.17;;;6.67;;
14688;SDS011;7432;48.728;9.154;2024-01-06T12:40:33;8.30;;;7.80;;
14688;SDS011;7432;48.728;9.154;2024-01-06T12:43:01;8.20;;;7.70;;
14688;SDS011;7432;48.728;9.154;2024-01-06T12:45:28;8.13;;;7.63;;
14688;SDS011;7432;48.728;9.154;2024-01-06T12:47:54;7.43;;;7.00;;
14688;SDS011;7432;48.728;9.154;2024-01-06T12:50:21;7.90;;;7.50;;
14688;SDS011;7432;48.728;9.154;2024-01-06T12:52:47;7.70;;;7.30;;
14688;SDS011;7432;48.728;9.154;2024-01-06T12:55:13;7.77;;;7.27;;
14688;SDS011;7432;48.728;9.154;2024-01-06T12:57:41;6.60;;;6.30;;
14688;SDS011;7432;48.728;9.154;2024-01-06T13:00:08;7.57;;;7.17;;
14688;SDS011;7432;48.728;9.154;2024-01-06T13:02:36;7.17;;;6.77;;
14688;SDS011;7432;48.728;9.154;2024-01-06T13:05:03;8.60;;;7.90;;
14688;SDS011;7432;48.728;9.154;2024-01-06T13:07:30;7.77;;;7.27;;
14688;SDS011;7432;48.728;9.154;2024-01-06T13:09:56;7.30;;;6.90;;
14688;SDS011;7432;48.728;9.154;2024-01-06T13:12:23;7.30;;;6.90;;
14688;SDS011;7432;48.728;9.154;2024-01-06T13:14:51;7.73;;;7.33;;
14688;SDS011;7432;48.728;9.154;2024-01-06T13:17:17;8.07;;;7.57;;
14688;SDS011;7432;48.728;9.154;2024-01-06T13:19:43;7.87;;;7.37;;
14688;SDS011;7432;48.728;9.154;2024-01-06T13:22:10;7.43;;;7.03;;
14688;SDS011;7432;48.728;9.154;2024-01-06T13:24:38;7.57;;;7.17;;
14688;SDS011;7432;48.728;9.154;2024-01-06T13:27:05;7.50;;;7.10;;
14688;SDS011;7432;48.728;9.154;2024-01-06T13:29:32;7.70;;;7.20;;
14688;SDS011;7432;48.728;9.154;2024-01-06T13:31:59;7.80;;;7.40;;
14688;SDS011;7432;48.728;9.154;2024-01-06T13:34:26;7.60;;;7.20;;
14688;SDS011;7432;48.728;9.154;2024-01-06T13:36:54;7.53;;;7.13;;
14688;SDS011;7432;48.728;9.154;2024-01-06T13:39:22;7.70;;;7.20;;
14688;SDS011;7432;48.728;9.154;2024-01-06T13:41:49;7.90;;;7.47;;
14688;SDS011;7432;48.728;9.154;2024-01-06T13:44:15;7.87;;;7.40;;
14688;SDS011;7432;48.728;9.154;2024-01-06T13:46:42;8.07;;;7.67;;
14688;SDS011;7432;48.728;9.154;2024-01-06T13:49:11;7.60;;;7.10;;
14688;SDS011;7432;48.728;9.154;2024-01-06T13:51:37;7.93;;;7.43;;
14688;SDS011;7432;48.728;9.154;2024-01-06T13:54:04;8.07;;;7.57;;
14688;SDS011;7432;48.728;9.154;2024-01-06T13:56:31;8.60;;;8.00;;
14688;SDS011;7432;48.728;9.154;2024-01-06T13:58:57;8.47;;;7.87;;
14688;SDS011;7432;48.728;9.154;2024-01-06T14:01:24;8.57;;;7.97;;
14688;SDS011;7432;48.728;9.154;2024-01-06T14:03:50;8.40;;;7.87;;
14688;SDS011;7432;48.728;9.154;2024-01-06T14:06:23;8.60;;;8.10;;
14688;SDS011;7432;48.728;9.154;2024-01-06T14:08:50;8.47;;;7.87;;
14688;SDS011;7432;48.728;9.154;2024-01-06T14:11:17;8.47;;;7.97;;
14688;SDS011;7432;48.728;9.154;2024-01-06T14:13:44;8.27;;;7.77;;
14688;SDS011;7432;48.728;9.154;2024-01-06T14:16:13;8.77;;;8.17;;
14688;SDS011;7432;48.728;9.154;2024-01-06T14:18:40;9.50;;;8.90;;
14688;SDS011;7432;48.728;9.154;2024-01-06T14:21:07;8.60;;;8.00;;
14688;SDS011;7432;48.728;9.154;2024-01-06T14:23:36;8.50;;;8.00;;
14688;SDS011;7432;48.728;9.154;2024-01-06T14:26:03;8.73;;;8.13;;
14688;SDS011;7432;48.728;9.154;2024-01-06T14:28:29;9.97;;;9.17;;
14688;SDS011;7432;48.728;9.154;2024-01-06T14:30:56;10.47;;;9.50;;
14688;SDS011;7432;48.728;9.154;2024-01-06T14:33:22;9.33;;;8.63;;
14688;SDS011;7432;48.728;9.154;2024-01-06T14:35:49;11.83;;;10.67;;
14688;SDS011;7432;48.728;9.154;2024-01-06T14:38:15;10.80;;;9.80;;
14688;SDS011;7432;48.728;9.154;2024-01-06T14:40:43;9.37;;;8.67;;
14688;SDS011;7432;48.728;9.154;2024-01-06T14:43:09;8.27;;;7.77;;
14688;SDS011;7432;48.728;9.154;2024-01-06T14:45:36;8.43;;;7.80;;
14688;SDS011;7432;48.728;9.154;2024-01-06T14:48:03;8.60;;;8.10;;
14688;SDS011;7432;48.728;9.154;2024-01-06T14:50:30;10.10;;;9.40;;
14688;SDS011;7432;48.728;9.154;2024-01-06T14:52:56;10.27;;;9.53;;
14688;SDS011;7432;48.728;9.154;2024-01-06T14:55:23;9.23;;;8.63;;
14688;SDS011;7432;48.728;9.154;2024-01-06T14:57:50;8.43;;;7.90;;
14688;SDS011;7432;48.728;9.154;2024-01-06T15:00:17;7.87;;;7.37;;